AU-0074 weather

Longford Heliport
Bass Straight Oil and Gas industry, Victoria, Australia

Public forecast

Using degrees Celsius for public forecast. Weather courtesy of forecast.io.

METAR (pilot weather report)

Closest report is Melbourne Essendon Airport, 111.3 nm (206.1 km) WNW. Retrieved 2019/03/20 13:30 UTC (0 seconds ago):

YMEN 201330Z AUTO 24008KT 9999 // OVC006 20/18 Q1015

TAF (pilot weather forecast)

Closest forecast is Melbourne International Airport, 114.9 nm (212.8 km) WNW. Retrieved 2019/03/20 12:40 UTC (40 minutes ago):

TAF YMML 201103Z 2012/2118 24007KT 9999 -DZ BKN006 FM210000 19007KT 9999 FEW014 BKN025 FM211600 27006KT 9999 BKN008 TEMPO 2012/2024 5000 -DZ BKN005 TEMPO 2100/2103 9999 BKN016 TEMPO 2110/2116 9999 BKN008 PROB30 2016/2021 0500 FG BKN001